createdAt,value
2019-01-06T00:00:47.024Z,80.00
2019-01-06T00:01:49.936Z,80.30
2019-01-06T00:02:55.385Z,80.40
2019-01-06T00:03:58.293Z,80.50
2019-01-06T00:05:01.212Z,80.20
2019-01-06T00:06:20.833Z,80.10
2019-01-06T00:07:35.760Z,80.00
2019-01-06T00:08:55.357Z,79.50
2019-01-06T00:10:13.400Z,79.70
2019-01-06T00:11:22.145Z,79.50
2019-01-06T00:12:34.109Z,79.30
2019-01-06T00:13:46.156Z,79.20
2019-01-06T00:15:07.188Z,79.20
2019-01-06T00:16:10.115Z,79.40
2019-01-06T00:17:13.046Z,79.40
2019-01-06T00:18:32.627Z,79.90
2019-01-06T00:19:52.282Z,79.80
2019-01-06T00:21:13.408Z,80.00
2019-01-06T00:22:18.947Z,80.20
2019-01-06T00:23:21.922Z,80.10
2019-01-06T00:24:41.227Z,80.40
2019-01-06T00:25:46.922Z,80.00
2019-01-06T00:26:49.837Z,80.10
2019-01-06T00:27:55.516Z,80.70
2019-01-06T00:29:14.996Z,80.10
2019-01-06T00:30:33.036Z,80.20
2019-01-06T00:31:35.945Z,80.30
2019-01-06T00:32:38.860Z,80.30
2019-01-06T00:33:58.341Z,80.50
2019-01-06T00:35:16.297Z,80.40
2019-01-06T00:36:22.256Z,80.80
2019-01-06T00:37:41.862Z,80.30
2019-01-06T00:39:02.720Z,80.10
2019-01-06T00:40:08.420Z,80.20
2019-01-06T00:41:11.412Z,79.80
2019-01-06T00:42:23.421Z,80.00
2019-01-06T00:43:43.037Z,79.70
2019-01-06T00:44:48.756Z,79.50
2019-01-06T00:45:51.722Z,80.00
2019-01-06T00:46:54.644Z,79.50
2019-01-06T00:48:14.204Z,79.90
2019-01-06T00:49:33.808Z,80.10
2019-01-06T00:50:39.613Z,79.50
2019-01-06T00:51:42.522Z,79.70
2019-01-06T00:52:53.998Z,80.00
2019-01-06T00:53:59.900Z,79.90
2019-01-06T00:55:19.308Z,80.30
2019-01-06T00:56:31.189Z,80.40
2019-01-06T00:57:45.948Z,80.40
2019-01-06T00:58:48.865Z,80.40
2019-01-06T01:00:00.597Z,80.20
2019-01-06T01:01:09.188Z,80.40
2019-01-06T01:02:14.892Z,80.60
2019-01-06T01:03:34.417Z,80.60
2019-01-06T01:04:46.524Z,80.60
2019-01-06T01:05:49.444Z,80.60
2019-01-06T01:06:57.988Z,80.60
2019-01-06T01:08:16.125Z,80.30
2019-01-06T01:09:27.165Z,80.40
2019-01-06T01:10:46.798Z,80.30
2019-01-06T01:11:55.544Z,80.50
2019-01-06T01:13:13.334Z,80.40
2019-01-06T01:14:21.977Z,80.70
2019-01-06T01:15:27.433Z,80.60
2019-01-06T01:16:30.350Z,80.90
2019-01-06T01:17:35.788Z,80.80
2019-01-06T01:18:41.457Z,80.80
2019-01-06T01:19:53.465Z,80.60
2019-01-06T01:21:05.184Z,80.60
2019-01-06T01:22:08.101Z,80.50
2019-01-06T01:23:27.944Z,80.60
2019-01-06T01:24:30.867Z,80.90
2019-01-06T01:25:39.613Z,80.60
2019-01-06T01:26:48.427Z,80.20
2019-01-06T01:27:50.132Z,80.20
2019-01-06T01:29:09.477Z,80.40
2019-01-06T01:30:18.469Z,80.20
2019-01-06T01:31:37.731Z,80.20
2019-01-06T01:32:58.840Z,80.50
2019-01-06T01:34:02.113Z,80.40
2019-01-06T01:35:05.229Z,80.50
2019-01-06T01:36:11.144Z,80.30
2019-01-06T01:37:17.101Z,80.30
2019-01-06T01:38:35.371Z,80.00
2019-01-06T01:39:44.117Z,79.90
2019-01-06T01:40:49.868Z,79.40
2019-01-06T01:41:55.321Z,79.90
2019-01-06T01:43:07.522Z,79.40
2019-01-06T01:44:10.528Z,79.70
2019-01-06T01:45:13.532Z,79.80
2019-01-06T01:46:32.896Z,79.70
2019-01-06T01:47:38.634Z,79.50
2019-01-06T01:48:56.436Z,79.30
2019-01-06T01:49:59.353Z,79.30
2019-01-06T01:51:05.305Z,79.40
2019-01-06T01:52:14.009Z,79.20
2019-01-06T01:53:19.964Z,79.30
2019-01-06T01:54:22.889Z,79.50
2019-01-06T01:55:25.797Z,79.70
2019-01-06T01:56:31.858Z,79.80
2019-01-06T01:57:34.769Z,79.50
2019-01-06T01:58:40.472Z,79.70
2019-01-06T01:59:59.854Z,79.90
2019-01-06T02:01:02.764Z,79.90
2019-01-06T02:02:11.476Z,79.70
2019-01-06T02:03:17.205Z,79.60
2019-01-06T02:04:25.734Z,79.60
2019-01-06T02:05:40.454Z,79.50
2019-01-06T02:06:55.261Z,79.10
2019-01-06T02:08:07.317Z,79.50
2019-01-06T02:09:16.017Z,79.50
2019-01-06T02:10:31.263Z,79.40
2019-01-06T02:11:46.280Z,79.50
2019-01-06T02:12:49.216Z,79.10
2019-01-06T02:14:10.020Z,78.90
2019-01-06T02:15:18.941Z,79.00
2019-01-06T02:16:33.716Z,78.60
2019-01-06T02:17:53.325Z,79.00
2019-01-06T02:19:08.182Z,78.90
2019-01-06T02:20:26.481Z,78.40
2019-01-06T02:21:45.896Z,78.80
2019-01-06T02:22:48.822Z,78.50
2019-01-06T02:23:51.735Z,79.00
2019-01-06T02:25:11.241Z,78.80
2019-01-06T02:26:23.025Z,78.70
2019-01-06T02:27:42.488Z,78.70
2019-01-06T02:29:02.092Z,78.40
2019-01-06T02:30:24.862Z,78.80
2019-01-06T02:31:30.297Z,78.50
2019-01-06T02:32:42.069Z,78.70
2019-01-06T02:33:44.990Z,78.90
2019-01-06T02:34:50.557Z,79.80
2019-01-06T02:36:09.701Z,79.30
2019-01-06T02:37:24.648Z,79.60
2019-01-06T02:38:36.513Z,79.10
2019-01-06T02:39:42.200Z,79.60
2019-01-06T02:40:51.105Z,79.60
2019-01-06T02:41:56.546Z,79.50
2019-01-06T02:42:59.474Z,79.60
2019-01-06T02:44:18.802Z,80.20
2019-01-06T02:45:33.792Z,80.00
2019-01-06T02:46:54.795Z,80.30
2019-01-06T02:48:14.085Z,80.40
2019-01-06T02:49:16.993Z,80.40
2019-01-06T02:50:22.652Z,80.20
2019-01-06T02:51:28.560Z,80.40
2019-01-06T02:52:40.264Z,80.80
2019-01-06T02:53:54.966Z,80.60
2019-01-06T02:55:10.086Z,80.60
2019-01-06T02:56:15.528Z,80.80
2019-01-06T02:57:21.222Z,80.50
2019-01-06T02:58:26.648Z,80.60
2019-01-06T02:59:29.569Z,80.40
2019-01-06T03:00:35.328Z,80.40
2019-01-06T03:01:49.934Z,80.70
2019-01-06T03:02:59.010Z,80.40
2019-01-06T03:04:01.926Z,80.70
2019-01-06T03:05:21.926Z,80.80
2019-01-06T03:06:24.846Z,80.60
2019-01-06T03:07:33.540Z,80.60
2019-01-06T03:08:52.933Z,80.90
2019-01-06T03:09:55.838Z,81.00
2019-01-06T03:11:01.528Z,80.80
2019-01-06T03:12:04.440Z,81.00
2019-01-06T03:13:07.354Z,80.70
2019-01-06T03:14:25.468Z,80.50
2019-01-06T03:15:37.237Z,81.40
2019-01-06T03:16:42.953Z,80.60
2019-01-06T03:18:02.727Z,80.80
2019-01-06T03:19:05.645Z,80.20
2019-01-06T03:20:23.944Z,80.40
2019-01-06T03:21:26.856Z,80.40
2019-01-06T03:22:46.494Z,80.40
2019-01-06T03:23:58.022Z,80.70
2019-01-06T03:25:06.910Z,81.00
2019-01-06T03:26:09.831Z,80.80
2019-01-06T03:27:27.668Z,81.20
2019-01-06T03:28:39.405Z,81.80
2019-01-06T03:29:54.165Z,81.20
2019-01-06T03:30:59.857Z,81.00
2019-01-06T03:32:05.638Z,80.80
2019-01-06T03:33:14.491Z,80.80
2019-01-06T03:34:19.929Z,81.10
2019-01-06T03:35:25.602Z,81.30
2019-01-06T03:36:46.724Z,81.30
2019-01-06T03:37:49.933Z,81.30
2019-01-06T03:38:53.113Z,80.90
2019-01-06T03:39:58.569Z,80.90
2019-01-06T03:41:19.628Z,81.20
2019-01-06T03:42:25.397Z,80.70
2019-01-06T03:43:30.847Z,80.90
2019-01-06T03:44:36.556Z,82.00
2019-01-06T03:45:45.306Z,81.60
2019-01-06T03:46:48.231Z,81.70
2019-01-06T03:48:02.930Z,81.30
2019-01-06T03:49:18.138Z,81.60
2019-01-06T03:50:35.952Z,81.70
2019-01-06T03:51:47.460Z,81.20
2019-01-06T03:53:06.957Z,81.60
2019-01-06T03:54:12.629Z,81.40
2019-01-06T03:55:32.677Z,81.40
2019-01-06T03:56:35.657Z,81.10
2019-01-06T03:57:47.219Z,81.00
2019-01-06T03:58:56.176Z,81.00
2019-01-06T04:00:08.029Z,81.30
2019-01-06T04:01:20.001Z,81.00
2019-01-06T04:02:22.914Z,81.20
2019-01-06T04:03:28.670Z,80.70
2019-01-06T04:04:31.703Z,80.70
2019-01-06T04:05:43.608Z,80.50
2019-01-06T04:06:46.521Z,80.40
2019-01-06T04:07:52.064Z,80.00
2019-01-06T04:09:11.360Z,80.30
2019-01-06T04:10:31.006Z,80.40
2019-01-06T04:11:39.745Z,80.40
2019-01-06T04:12:51.483Z,80.70
2019-01-06T04:13:57.181Z,80.70
2019-01-06T04:15:02.903Z,80.90
2019-01-06T04:16:14.877Z,80.90
2019-01-06T04:17:35.537Z,81.40
2019-01-06T04:18:50.441Z,81.30
2019-01-06T04:20:09.748Z,81.20
2019-01-06T04:21:29.361Z,81.10
2019-01-06T04:22:35.025Z,81.30
2019-01-06T04:23:37.945Z,81.40
2019-01-06T04:24:57.730Z,81.60
2019-01-06T04:26:17.425Z,81.70
2019-01-06T04:27:36.993Z,81.80
2019-01-06T04:28:39.909Z,82.10
2019-01-06T04:29:54.517Z,82.00
2019-01-06T04:30:57.428Z,82.00
2019-01-06T04:32:12.021Z,82.50
2019-01-06T04:33:26.773Z,82.30
2019-01-06T04:34:45.049Z,82.40
2019-01-06T04:35:53.636Z,82.00
2019-01-06T04:36:56.548Z,81.80
2019-01-06T04:38:11.346Z,81.90
2019-01-06T04:39:17.196Z,81.90
2019-01-06T04:40:36.881Z,82.60
2019-01-06T04:41:56.397Z,81.90
2019-01-06T04:42:59.321Z,81.60
2019-01-06T04:44:02.224Z,82.10
2019-01-06T04:45:10.932Z,81.70
2019-01-06T04:46:16.381Z,81.90
2019-01-06T04:47:19.301Z,81.90
2019-01-06T04:48:28.245Z,81.70
2019-01-06T04:49:31.160Z,82.00
2019-01-06T04:50:42.827Z,82.00
2019-01-06T04:51:48.513Z,81.80
2019-01-06T04:52:51.427Z,81.70
2019-01-06T04:54:11.395Z,81.30
2019-01-06T04:55:17.080Z,81.30
2019-01-06T04:56:22.531Z,81.10
2019-01-06T04:57:28.064Z,81.80
2019-01-06T04:58:30.973Z,81.80
2019-01-06T04:59:52.157Z,82.00
2019-01-06T05:01:09.787Z,81.70
2019-01-06T05:02:21.352Z,82.40
2019-01-06T05:03:24.260Z,82.60
2019-01-06T05:04:27.172Z,82.60
2019-01-06T05:05:30.089Z,82.50
2019-01-06T05:06:49.894Z,82.60
2019-01-06T05:08:02.018Z,82.50
2019-01-06T05:09:09.696Z,82.60
2019-01-06T05:10:15.448Z,82.50
2019-01-06T05:11:21.312Z,82.70
2019-01-06T05:12:33.060Z,82.50
2019-01-06T05:13:44.752Z,82.70
2019-01-06T05:14:50.456Z,83.00
2019-01-06T05:15:55.885Z,83.20
2019-01-06T05:17:15.252Z,83.00
2019-01-06T05:18:24.190Z,83.10
2019-01-06T05:19:29.921Z,83.00
2019-01-06T05:20:49.597Z,82.90
2019-01-06T05:21:55.033Z,82.60
2019-01-06T05:23:03.972Z,82.50
2019-01-06T05:24:12.695Z,82.50
2019-01-06T05:25:24.412Z,82.60
2019-01-06T05:26:27.331Z,82.60
2019-01-06T05:27:39.057Z,82.70
2019-01-06T05:28:41.974Z,82.50
2019-01-06T05:29:44.885Z,82.50
2019-01-06T05:30:56.582Z,82.50
2019-01-06T05:32:05.349Z,81.90
2019-01-06T05:33:08.364Z,81.90
2019-01-06T05:34:15.161Z,81.00
2019-01-06T05:35:34.613Z,81.10
2019-01-06T05:36:37.541Z,81.20
2019-01-06T05:37:52.509Z,81.60
2019-01-06T05:39:04.440Z,81.90
2019-01-06T05:40:22.238Z,82.50
2019-01-06T05:41:25.463Z,81.60
2019-01-06T05:42:34.216Z,81.60
2019-01-06T05:43:46.130Z,81.30
2019-01-06T05:44:49.057Z,81.60
2019-01-06T05:45:55.004Z,81.60
2019-01-06T05:46:57.939Z,81.40
2019-01-06T05:48:00.856Z,81.60
2019-01-06T05:49:03.768Z,81.20
2019-01-06T05:50:12.953Z,80.70
2019-01-06T05:51:32.421Z,81.50
2019-01-06T05:52:35.341Z,80.70
2019-01-06T05:53:54.574Z,81.10
2019-01-06T05:55:09.888Z,81.20
2019-01-06T05:56:15.316Z,80.40
2019-01-06T05:57:21.124Z,80.00
2019-01-06T05:58:29.797Z,80.30
2019-01-06T05:59:44.429Z,80.30
2019-01-06T06:01:03.816Z,80.40
2019-01-06T06:02:12.625Z,80.80
2019-01-06T06:03:15.580Z,80.00
2019-01-06T06:04:21.257Z,80.30
2019-01-06T06:05:40.757Z,80.30
2019-01-06T06:06:49.708Z,80.10
2019-01-06T06:08:01.239Z,80.20
2019-01-06T06:09:22.636Z,80.00
2019-01-06T06:10:40.421Z,79.70
2019-01-06T06:11:59.845Z,80.00
2019-01-06T06:13:08.613Z,80.10
2019-01-06T06:14:17.324Z,80.20
2019-01-06T06:15:20.232Z,80.10
2019-01-06T06:16:26.352Z,80.10
2019-01-06T06:17:40.921Z,80.10
2019-01-06T06:18:43.833Z,79.80
2019-01-06T06:20:03.629Z,80.00
2019-01-06T06:21:09.752Z,80.20
2019-01-06T06:22:18.308Z,80.40
2019-01-06T06:23:37.856Z,80.90
2019-01-06T06:24:55.869Z,80.30
2019-01-06T06:26:01.919Z,80.70
2019-01-06T06:27:21.645Z,81.00
2019-01-06T06:28:24.561Z,81.10
2019-01-06T06:29:44.392Z,81.00
2019-01-06T06:30:50.128Z,81.10
2019-01-06T06:32:05.225Z,81.10
2019-01-06T06:33:24.609Z,80.90
2019-01-06T06:34:33.313Z,81.10
2019-01-06T06:35:52.873Z,81.40
2019-01-06T06:37:12.564Z,81.60
2019-01-06T06:38:21.261Z,81.80
2019-01-06T06:39:24.176Z,81.70
2019-01-06T06:40:32.632Z,82.00
2019-01-06T06:41:47.669Z,82.00
2019-01-06T06:42:53.384Z,82.00
2019-01-06T06:43:56.380Z,81.70
2019-01-06T06:45:11.121Z,82.00
2019-01-06T06:46:16.840Z,81.70
2019-01-06T06:47:22.297Z,81.80
2019-01-06T06:48:28.197Z,81.90
2019-01-06T06:49:47.629Z,81.70
2019-01-06T06:51:03.055Z,81.70
2019-01-06T06:52:06.069Z,81.40
2019-01-06T06:53:23.862Z,81.60
2019-01-06T06:54:32.633Z,81.40
2019-01-06T06:55:35.563Z,81.60
2019-01-06T06:56:50.280Z,81.40
2019-01-06T06:58:27.869Z,81.40
2019-01-06T06:59:39.870Z,81.30
2019-01-06T07:00:48.717Z,81.10
2019-01-06T07:02:01.339Z,80.90
2019-01-06T07:03:23.192Z,80.90
2019-01-06T07:04:31.988Z,80.60
2019-01-06T07:05:34.924Z,80.90
2019-01-06T07:06:43.996Z,80.90
2019-01-06T07:07:46.908Z,80.80
2019-01-06T07:08:55.621Z,80.90
2019-01-06T07:09:58.528Z,80.70
2019-01-06T07:11:01.696Z,80.80
2019-01-06T07:12:20.928Z,81.10
2019-01-06T07:13:29.876Z,81.40
2019-01-06T07:14:41.448Z,81.30
2019-01-06T07:15:56.416Z,81.40
2019-01-06T07:17:46.046Z,81.40
2019-01-06T07:18:57.968Z,81.60
2019-01-06T07:20:03.644Z,81.50
2019-01-06T07:21:15.248Z,81.50
2019-01-06T07:22:18.160Z,81.60
2019-01-06T07:23:38.999Z,81.70
2019-01-06T07:24:59.808Z,81.70
2019-01-06T07:26:08.277Z,81.90
2019-01-06T07:27:17.172Z,82.00
2019-01-06T07:28:20.096Z,81.80
2019-01-06T07:29:25.563Z,81.90
2019-01-06T07:30:44.940Z,81.50
2019-01-06T07:31:56.895Z,81.70
2019-01-06T07:32:59.805Z,81.70
2019-01-06T07:34:02.737Z,81.80
2019-01-06T07:35:14.300Z,81.60
2019-01-06T07:36:33.648Z,81.30
2019-01-06T07:37:36.644Z,81.50
2019-01-06T07:38:48.608Z,81.90
2019-01-06T07:40:08.155Z,81.90
2019-01-06T07:41:16.934Z,81.60
2019-01-06T07:42:25.644Z,81.60
2019-01-06T07:43:28.630Z,82.00
2019-01-06T07:44:34.117Z,82.30
2019-01-06T07:45:46.072Z,82.30
2019-01-06T07:46:49.006Z,82.10
2019-01-06T07:48:00.508Z,82.30
2019-01-06T07:49:05.988Z,82.10
2019-01-06T07:50:17.702Z,82.50
2019-01-06T07:51:35.440Z,82.50
2019-01-06T07:52:40.872Z,82.50
2019-01-06T07:53:43.793Z,82.00
2019-01-06T07:54:46.729Z,81.70
2019-01-06T07:56:07.904Z,81.50
2019-01-06T07:57:10.824Z,81.70
2019-01-06T07:58:16.361Z,82.00
2019-01-06T07:59:22.104Z,82.10
2019-01-06T08:00:25.016Z,82.40
2019-01-06T08:01:44.416Z,82.00
2019-01-06T08:03:04.000Z,81.90
2019-01-06T08:04:12.785Z,82.10
2019-01-06T08:05:32.304Z,82.10
2019-01-06T08:06:51.972Z,81.80
2019-01-06T08:08:11.508Z,82.00
2019-01-06T08:09:23.270Z,82.00
2019-01-06T08:10:26.177Z,82.10
2019-01-06T08:11:29.089Z,81.80
2019-01-06T08:12:34.694Z,81.70
2019-01-06T08:13:43.393Z,81.60
2019-01-06T08:14:58.153Z,81.60
2019-01-06T08:16:03.829Z,81.40
2019-01-06T08:17:23.441Z,81.40
2019-01-06T08:18:29.152Z,81.20
2019-01-06T08:19:44.199Z,81.40
2019-01-06T08:20:47.173Z,81.70
2019-01-06T08:22:08.102Z,81.60
2019-01-06T08:23:26.440Z,81.70
2019-01-06T08:24:29.437Z,81.10
2019-01-06T08:25:47.252Z,81.60
2019-01-06T08:26:53.144Z,81.60
2019-01-06T08:27:58.592Z,81.70
2019-01-06T08:29:10.321Z,81.80
2019-01-06T08:30:13.244Z,82.00
2019-01-06T08:31:32.694Z,82.20
2019-01-06T08:32:52.477Z,82.20
2019-01-06T08:33:55.400Z,82.20
2019-01-06T08:35:14.993Z,81.70
2019-01-06T08:36:20.669Z,82.00
2019-01-06T08:37:41.484Z,82.10
2019-01-06T08:38:50.359Z,82.20
2019-01-06T08:39:53.280Z,82.50
2019-01-06T08:40:56.201Z,82.20
2019-01-06T08:42:04.845Z,81.90
2019-01-06T08:43:22.920Z,81.90
2019-01-06T08:44:25.833Z,82.40
2019-01-06T08:45:31.541Z,82.50
2019-01-06T08:46:51.053Z,82.50
2019-01-06T08:48:10.550Z,82.50
2019-01-06T08:49:30.250Z,82.20
2019-01-06T08:50:39.129Z,82.60
2019-01-06T08:51:59.961Z,82.30
2019-01-06T08:53:02.865Z,82.50
2019-01-06T08:54:24.041Z,82.30
2019-01-06T08:55:35.997Z,82.30
2019-01-06T08:56:55.453Z,82.30
2019-01-06T08:57:58.361Z,82.70
2019-01-06T08:59:06.956Z,83.10
2019-01-06T09:00:09.972Z,83.10
2019-01-06T09:01:29.561Z,83.10
2019-01-06T09:02:49.332Z,83.00
2019-01-06T09:04:10.445Z,83.00
2019-01-06T09:05:18.892Z,82.50
2019-01-06T09:06:38.439Z,82.60
2019-01-06T09:07:41.340Z,82.70
2019-01-06T09:08:44.772Z,82.90
2019-01-06T09:10:03.025Z,82.80
2019-01-06T09:11:22.720Z,82.80
2019-01-06T09:12:25.632Z,82.60
2019-01-06T09:13:28.536Z,82.00
2019-01-06T09:14:47.856Z,82.30
2019-01-06T09:15:56.637Z,82.60
2019-01-06T09:17:02.351Z,82.20
2019-01-06T09:18:21.900Z,82.50
2019-01-06T09:19:49.828Z,82.50
2019-01-06T09:20:55.068Z,83.20
2019-01-06T09:22:14.809Z,82.80
2019-01-06T09:23:20.548Z,82.30
2019-01-06T09:24:38.633Z,82.80
2019-01-06T09:25:41.554Z,82.80
2019-01-06T09:27:02.797Z,82.40
2019-01-06T09:28:22.508Z,82.80
2019-01-06T09:29:42.252Z,81.90
2019-01-06T09:31:01.847Z,82.40
2019-01-06T09:32:10.533Z,82.50
2019-01-06T09:33:28.546Z,82.00
2019-01-06T09:34:37.477Z,82.30
2019-01-06T09:35:58.401Z,82.00
2019-01-06T09:37:13.605Z,82.30
2019-01-06T09:38:16.521Z,82.00
2019-01-06T09:39:19.437Z,82.20
2019-01-06T09:40:31.072Z,82.70
2019-01-06T09:41:36.621Z,82.70
2019-01-06T09:42:51.237Z,82.70
2019-01-06T09:43:54.153Z,82.70
2019-01-06T09:44:57.061Z,82.90
2019-01-06T09:46:16.757Z,82.60
2019-01-06T09:47:36.457Z,82.00
2019-01-06T09:48:56.017Z,82.50
2019-01-06T09:50:15.643Z,82.20
2019-01-06T09:51:36.809Z,81.20
2019-01-06T09:52:39.768Z,81.70
2019-01-06T09:53:42.696Z,82.20
2019-01-06T09:55:01.933Z,82.30
2019-01-06T09:56:19.972Z,82.10
2019-01-06T09:57:28.690Z,81.90
2019-01-06T09:58:43.604Z,82.10
2019-01-06T09:59:49.305Z,81.70
2019-01-06T10:00:52.224Z,81.40
2019-01-06T10:01:55.151Z,81.70
2019-01-06T10:03:16.131Z,81.90
2019-01-06T10:04:20.940Z,81.50
2019-01-06T10:05:32.481Z,81.30
2019-01-06T10:06:52.000Z,81.30
2019-01-06T10:08:09.982Z,80.30
2019-01-06T10:09:12.893Z,80.40
2019-01-06T10:10:30.621Z,80.80
2019-01-06T10:11:39.300Z,81.20
2019-01-06T10:12:44.753Z,81.20
2019-01-06T10:14:04.308Z,81.20
2019-01-06T10:15:07.325Z,80.90
2019-01-06T10:16:28.148Z,81.10
2019-01-06T10:17:39.869Z,80.60
2019-01-06T10:18:42.770Z,80.60
2019-01-06T10:19:45.677Z,80.90
2019-01-06T10:20:48.601Z,81.00
2019-01-06T10:21:57.088Z,81.00
2019-01-06T10:23:16.593Z,80.60
2019-01-06T10:24:19.512Z,80.50
2019-01-06T10:25:28.269Z,80.10
2019-01-06T10:26:47.560Z,80.00
2019-01-06T10:27:59.512Z,80.50
2019-01-06T10:29:02.563Z,80.50
2019-01-06T10:30:07.860Z,80.50
2019-01-06T10:31:10.772Z,80.70
2019-01-06T10:32:13.870Z,80.50
2019-01-06T10:33:16.777Z,80.50
2019-01-06T10:34:37.948Z,80.50
2019-01-06T10:35:40.964Z,80.60
2019-01-06T10:36:43.904Z,81.00
2019-01-06T10:37:49.618Z,81.00
2019-01-06T10:39:09.375Z,80.60
2019-01-06T10:40:12.322Z,80.50
2019-01-06T10:41:15.240Z,80.70
2019-01-06T10:42:20.739Z,81.20
2019-01-06T10:43:32.524Z,81.20
2019-01-06T10:44:44.291Z,80.70
2019-01-06T10:46:03.585Z,80.80
2019-01-06T10:47:18.743Z,80.70
2019-01-06T10:48:21.712Z,80.80
2019-01-06T10:49:24.641Z,81.20
2019-01-06T10:50:30.134Z,81.20
2019-01-06T10:51:49.780Z,80.50
2019-01-06T10:53:09.408Z,80.10
2019-01-06T10:54:18.352Z,80.90
2019-01-06T10:55:30.316Z,81.10
2019-01-06T10:56:50.109Z,81.30
2019-01-06T10:57:53.118Z,81.50
2019-01-06T10:58:56.086Z,81.60
2019-01-06T11:00:15.800Z,81.50
2019-01-06T11:01:35.483Z,81.60
2019-01-06T11:02:38.393Z,81.20
2019-01-06T11:03:43.864Z,82.20
2019-01-06T11:05:03.440Z,81.20
2019-01-06T11:06:22.983Z,81.40
2019-01-06T11:07:25.896Z,82.50
2019-01-06T11:08:31.337Z,81.60
2019-01-06T11:09:51.042Z,82.30
2019-01-06T11:11:06.020Z,81.70
2019-01-06T11:12:25.533Z,80.90
2019-01-06T11:13:34.453Z,80.50
2019-01-06T11:14:39.924Z,80.80
2019-01-06T11:15:59.585Z,81.00
2019-01-06T11:17:02.572Z,80.50
2019-01-06T11:18:11.568Z,80.80
2019-01-06T11:19:17.516Z,81.20
2019-01-06T11:20:32.456Z,81.20
2019-01-06T11:21:38.136Z,80.30
2019-01-06T11:22:56.123Z,81.40
2019-01-06T11:24:15.746Z,81.50
2019-01-06T11:25:18.660Z,81.80
2019-01-06T11:26:33.805Z,81.50
2019-01-06T11:27:42.521Z,81.70
2019-01-06T11:28:51.264Z,81.30
2019-01-06T11:30:11.001Z,81.50
2019-01-06T11:31:30.771Z,81.50
2019-01-06T11:32:39.604Z,81.60
2019-01-06T11:33:51.390Z,81.50
2019-01-06T11:35:10.684Z,81.10
2019-01-06T11:36:22.499Z,81.30
2019-01-06T11:37:42.162Z,81.20
2019-01-06T11:39:01.986Z,81.20
2019-01-06T11:40:23.686Z,81.30
2019-01-06T11:41:29.427Z,81.70
2019-01-06T11:42:48.980Z,82.00
2019-01-06T11:44:06.991Z,82.00
2019-01-06T11:45:21.673Z,81.70
2019-01-06T11:46:24.585Z,81.60
2019-01-06T11:47:44.128Z,81.50
2019-01-06T11:49:03.718Z,81.60
2019-01-06T11:50:06.862Z,81.60
2019-01-06T11:51:26.257Z,80.40
2019-01-06T11:52:45.821Z,80.80
2019-01-06T11:54:05.420Z,81.20
2019-01-06T11:55:20.457Z,81.20
2019-01-06T11:56:39.809Z,81.30
2019-01-06T11:57:42.821Z,81.30
2019-01-06T11:58:45.805Z,81.20
2019-01-06T11:59:48.733Z,81.30
2019-01-06T12:01:00.741Z,81.50
2019-01-06T12:02:15.440Z,81.20
2019-01-06T12:03:30.225Z,81.10
2019-01-06T12:04:49.886Z,81.50
2019-01-06T12:05:58.776Z,81.80
2019-01-06T12:07:01.705Z,82.00
2019-01-06T12:08:05.789Z,81.90
2019-01-06T12:09:11.680Z,81.80
2019-01-06T12:10:20.597Z,81.80
2019-01-06T12:11:38.596Z,81.90
2019-01-06T12:12:41.518Z,81.40
2019-01-06T12:13:44.430Z,81.90
2019-01-06T12:14:56.477Z,82.20
2019-01-06T12:16:14.505Z,82.20
2019-01-06T12:17:29.516Z,82.20
2019-01-06T12:18:50.466Z,82.20
2019-01-06T12:20:02.909Z,82.20
2019-01-06T12:21:22.377Z,82.00
2019-01-06T12:22:40.369Z,82.50
2019-01-06T12:23:54.276Z,82.70
2019-01-06T12:24:59.964Z,82.70
2019-01-06T12:26:20.809Z,82.70
2019-01-06T12:27:40.384Z,82.70
2019-01-06T12:28:55.320Z,82.50
2019-01-06T12:30:01.007Z,82.10
2019-01-06T12:31:03.932Z,82.90
2019-01-06T12:32:23.732Z,82.10
2019-01-06T12:33:38.554Z,82.00
2019-01-06T12:34:58.171Z,82.40
2019-01-06T12:36:17.797Z,82.20
2019-01-06T12:37:20.700Z,81.90
2019-01-06T12:38:40.504Z,81.80
2019-01-06T12:39:52.494Z,81.50
2019-01-06T12:40:58.232Z,81.30
2019-01-06T12:42:01.440Z,81.20
2019-01-06T12:43:16.473Z,81.20
2019-01-06T12:44:35.745Z,80.80
2019-01-06T12:45:47.721Z,80.20
2019-01-06T12:46:59.436Z,80.80
2019-01-06T12:48:19.329Z,80.90
2019-01-06T12:49:22.246Z,81.10
2019-01-06T12:50:41.532Z,81.00
2019-01-06T12:51:44.453Z,81.20
2019-01-06T12:52:52.914Z,81.20
2019-01-06T12:54:01.913Z,81.10
2019-01-06T12:55:08.548Z,81.00
2019-01-06T12:56:23.209Z,80.90
2019-01-06T12:57:44.420Z,79.80
2019-01-06T12:58:56.350Z,80.00
2019-01-06T13:00:16.143Z,79.80
2019-01-06T13:01:35.940Z,79.20
2019-01-06T13:02:55.604Z,78.80
2019-01-06T13:04:15.106Z,78.90
2019-01-06T13:05:26.908Z,79.10
2019-01-06T13:06:29.816Z,78.80
2019-01-06T13:07:50.960Z,79.50
2019-01-06T13:09:10.280Z,79.10
2019-01-06T13:10:15.944Z,79.20
2019-01-06T13:11:18.876Z,79.50
2019-01-06T13:12:38.220Z,79.60
2019-01-06T13:13:43.892Z,79.60
2019-01-06T13:14:49.561Z,79.40
2019-01-06T13:16:08.973Z,79.80
2019-01-06T13:17:17.869Z,80.00
2019-01-06T13:18:20.777Z,79.80
2019-01-06T13:19:40.115Z,79.20
2019-01-06T13:20:55.076Z,80.00
2019-01-06T13:22:01.012Z,80.60
2019-01-06T13:23:03.920Z,80.60
2019-01-06T13:24:09.376Z,81.10
2019-01-06T13:25:12.301Z,80.70
2019-01-06T13:26:15.265Z,80.70
2019-01-06T13:27:20.971Z,80.70
2019-01-06T13:28:40.766Z,80.90
2019-01-06T13:30:00.352Z,81.00
2019-01-06T13:31:19.897Z,81.00
2019-01-06T13:32:22.817Z,80.80
2019-01-06T13:33:34.348Z,80.80
2019-01-06T13:34:37.277Z,80.60
2019-01-06T13:35:56.935Z,80.70
2019-01-06T13:37:11.989Z,80.70
2019-01-06T13:38:31.382Z,80.20
2019-01-06T13:39:51.038Z,80.40
2019-01-06T13:41:06.059Z,80.10
2019-01-06T13:42:11.813Z,80.30
2019-01-06T13:43:17.416Z,80.40
2019-01-06T13:44:20.347Z,80.50
2019-01-06T13:45:34.901Z,80.40
2019-01-06T13:46:46.884Z,80.10
2019-01-06T13:48:01.869Z,80.30
2019-01-06T13:49:10.836Z,80.40
2019-01-06T13:50:30.540Z,79.40
2019-01-06T13:51:33.445Z,79.50
2019-01-06T13:52:42.365Z,79.90
2019-01-06T13:53:57.325Z,79.30
2019-01-06T13:55:00.363Z,79.20
2019-01-06T13:56:08.969Z,79.00
2019-01-06T13:57:20.648Z,78.80
2019-01-06T13:58:23.572Z,78.90
2019-01-06T13:59:26.488Z,78.90
2019-01-06T14:00:45.852Z,78.90
2019-01-06T14:01:57.651Z,78.80
2019-01-06T14:03:06.581Z,78.80
2019-01-06T14:04:12.293Z,79.10
2019-01-06T14:05:23.916Z,79.20
2019-01-06T14:06:32.457Z,79.50
2019-01-06T14:07:38.144Z,79.80
2019-01-06T14:10:38.231Z,79.70
2019-01-06T14:11:53.121Z,79.20
2019-01-06T14:13:05.091Z,79.60
2019-01-06T14:14:08.001Z,80.00
2019-01-06T14:15:25.763Z,79.40
2019-01-06T14:16:40.749Z,79.80
2019-01-06T14:17:55.703Z,79.40
2019-01-06T14:19:07.602Z,79.40
2019-01-06T14:20:17.004Z,79.30
2019-01-06T14:21:22.728Z,79.60
2019-01-06T14:22:42.408Z,80.10
2019-01-06T14:23:51.153Z,78.60
2019-01-06T14:25:10.701Z,79.30
2019-01-06T14:26:13.612Z,79.60
2019-01-06T14:27:16.521Z,79.80
2019-01-06T14:28:25.290Z,79.40
2019-01-06T14:29:37.304Z,79.10
2019-01-06T14:30:45.882Z,78.70
2019-01-06T14:32:05.201Z,78.80
2019-01-06T14:33:23.248Z,78.80
2019-01-06T14:34:29.064Z,78.80
2019-01-06T14:35:31.993Z,78.80
2019-01-06T14:36:49.828Z,78.90
2019-01-06T14:37:53.002Z,79.70
2019-01-06T14:38:58.829Z,78.90
2019-01-06T14:40:16.669Z,78.90
2019-01-06T14:41:31.343Z,78.70
2019-01-06T14:42:52.329Z,78.90
2019-01-06T14:44:00.962Z,78.90
2019-01-06T14:45:03.877Z,78.60
2019-01-06T14:46:09.292Z,77.80
2019-01-06T14:47:17.997Z,77.20
2019-01-06T14:48:37.717Z,77.80
2019-01-06T14:50:58.970Z,78.00
2019-01-06T14:52:18.434Z,78.10
2019-01-06T14:53:24.180Z,77.40
2019-01-06T14:54:29.846Z,77.00
2019-01-06T14:55:44.745Z,77.50
2019-01-06T14:56:47.669Z,77.50
2019-01-06T14:57:53.641Z,77.70
2019-01-06T14:58:56.563Z,78.00
2019-01-06T15:00:05.276Z,77.30
2019-01-06T15:01:08.187Z,77.40
2019-01-06T15:02:11.097Z,76.90
2019-01-06T15:03:14.005Z,77.00
2019-01-06T15:04:16.924Z,77.40
2019-01-06T15:05:36.593Z,77.50
2019-01-06T15:06:39.509Z,77.60
2019-01-06T15:07:51.317Z,77.70
2019-01-06T15:09:00.048Z,77.80
2019-01-06T15:10:03.161Z,78.10
2019-01-06T15:11:08.893Z,77.80
2019-01-06T15:12:17.593Z,77.90
2019-01-06T15:13:29.774Z,77.90
2019-01-06T15:14:38.211Z,77.80
2019-01-06T15:15:43.768Z,76.80